createdAt,value
2023-05-13T00:00:45.484Z,101410.78
2023-05-13T00:03:12.484Z,101414.41
2023-05-13T00:05:40.419Z,101410.09
2023-05-13T00:08:07.456Z,101405.72
2023-05-13T00:10:34.819Z,101404.56
2023-05-13T00:13:01.645Z,101406.13
2023-05-13T00:15:28.713Z,101410.66
2023-05-13T00:17:55.295Z,101413.53
2023-05-13T00:20:22.103Z,101401.16
2023-05-13T00:22:48.856Z,101416.22
2023-05-13T00:25:15.501Z,101411.06
2023-05-13T00:27:42.014Z,101414.44
2023-05-13T00:30:09.344Z,101418.50
2023-05-13T00:32:35.867Z,101413.31
2023-05-13T00:35:02.411Z,101414.94
2023-05-13T00:37:28.902Z,101421.22
2023-05-13T00:39:55.445Z,101421.00
2023-05-13T00:42:21.941Z,101418.47
2023-05-13T00:44:48.535Z,101424.38
2023-05-13T00:47:16.842Z,101432.59
2023-05-13T00:49:43.537Z,101430.19
2023-05-13T00:52:10.022Z,101422.97
2023-05-13T00:54:36.538Z,101424.69
2023-05-13T00:57:02.986Z,101424.59
2023-05-13T00:59:30.704Z,101424.59
2023-05-13T01:02:12.273Z,101430.66
2023-05-13T01:04:52.667Z,101427.38
2023-05-13T01:07:37.952Z,101427.97
2023-05-13T01:10:43.483Z,101426.56
2023-05-13T01:13:13.414Z,101430.25
2023-05-13T01:15:47.399Z,101429.66
2023-05-13T01:18:19.709Z,101437.00
2023-05-13T01:20:46.649Z,101448.75
2023-05-13T01:23:13.199Z,101449.69
2023-05-13T01:25:40.759Z,101442.16
2023-05-13T01:28:08.579Z,101446.72
2023-05-13T01:30:36.132Z,101453.91
2023-05-13T01:33:03.208Z,101455.34
2023-05-13T01:35:31.692Z,101458.59
2023-05-13T01:37:59.323Z,101456.50
2023-05-13T01:40:32.867Z,101456.94
2023-05-13T01:43:00.726Z,101464.34
2023-05-13T01:45:30.610Z,101459.34
2023-05-13T01:47:57.181Z,101461.06
2023-05-13T01:50:24.169Z,101460.00
2023-05-13T01:52:50.868Z,101459.88
2023-05-13T01:55:17.672Z,101468.53
2023-05-13T01:57:44.182Z,101461.09
2023-05-13T02:00:11.432Z,101464.34
2023-05-13T02:02:37.992Z,101468.75
2023-05-13T02:05:05.397Z,101458.63
2023-05-13T02:07:31.930Z,101469.44
2023-05-13T02:09:59.800Z,101461.81
2023-05-13T02:12:26.984Z,101466.91
2023-05-13T02:14:54.553Z,101468.59
2023-05-13T02:17:22.761Z,101466.09
2023-05-13T02:19:49.428Z,101468.75
2023-05-13T02:22:16.370Z,101462.31
2023-05-13T02:24:43.055Z,101463.53
2023-05-13T02:27:12.502Z,101464.25
2023-05-13T02:29:39.103Z,101468.75
2023-05-13T02:32:06.132Z,101466.38
2023-05-13T02:34:32.609Z,101467.22
2023-05-13T02:36:59.044Z,101470.34
2023-05-13T02:39:25.483Z,101474.06
2023-05-13T02:41:51.985Z,101468.69
2023-05-13T02:44:18.443Z,101465.84
2023-05-13T02:46:44.929Z,101467.00
2023-05-13T02:49:11.611Z,101470.13
2023-05-13T02:51:38.012Z,101469.00
2023-05-13T02:54:05.008Z,101475.63
2023-05-13T02:56:31.526Z,101477.78
2023-05-13T02:58:58.184Z,101476.59
2023-05-13T03:01:26.624Z,101477.50
2023-05-13T03:03:53.235Z,101476.75
2023-05-13T03:06:19.687Z,101478.06
2023-05-13T03:08:46.175Z,101477.22
2023-05-13T03:11:12.650Z,101483.16
2023-05-13T03:13:39.117Z,101478.91
2023-05-13T03:16:05.712Z,101480.88
2023-05-13T03:18:32.856Z,101488.22
2023-05-13T03:20:59.480Z,101483.31
2023-05-13T03:23:26.010Z,101484.44
2023-05-13T03:25:52.487Z,101491.91
2023-05-13T03:28:19.005Z,101478.66
2023-05-13T03:30:45.697Z,101481.47
2023-05-13T03:33:12.252Z,101487.94
2023-05-13T03:35:38.807Z,101499.13
2023-05-13T03:38:05.280Z,101490.78
2023-05-13T03:40:31.798Z,101491.31
2023-05-13T03:42:58.280Z,101499.53
2023-05-13T03:45:24.702Z,101495.28
2023-05-13T03:47:51.210Z,101496.94
2023-05-13T03:50:17.759Z,101493.72
2023-05-13T03:52:46.793Z,101498.66
2023-05-13T03:55:15.008Z,101497.38
2023-05-13T03:57:45.149Z,101504.84
2023-05-13T04:00:12.367Z,101499.50
2023-05-13T04:02:39.118Z,101507.97
2023-05-13T04:05:06.371Z,101509.97
2023-05-13T04:07:32.954Z,101515.03
2023-05-13T04:09:59.375Z,101516.72
2023-05-13T04:12:25.849Z,101514.91
2023-05-13T04:14:52.323Z,101521.81
2023-05-13T04:17:18.847Z,101526.19
2023-05-13T04:19:45.362Z,101525.22
2023-05-13T04:22:11.930Z,101531.81
2023-05-13T04:24:38.687Z,101536.84
2023-05-13T04:27:05.403Z,101540.47
2023-05-13T04:29:31.852Z,101537.06
2023-05-13T04:31:58.378Z,101547.06
2023-05-13T04:34:24.850Z,101545.41
2023-05-13T04:36:51.290Z,101547.81
2023-05-13T04:39:17.701Z,101546.09
2023-05-13T04:41:44.240Z,101544.94
2023-05-13T04:44:10.908Z,101549.81
2023-05-13T04:46:40.546Z,101556.03
2023-05-13T04:49:07.105Z,101559.84
2023-05-13T04:51:34.003Z,101557.88
2023-05-13T04:54:00.803Z,101557.72
2023-05-13T04:56:27.911Z,101554.19
2023-05-13T04:58:54.398Z,101558.00
2023-05-13T05:01:20.892Z,101566.19
2023-05-13T05:03:47.447Z,101571.31
2023-05-13T05:06:13.942Z,101564.78
2023-05-13T05:08:40.488Z,101566.34
2023-05-13T05:11:06.972Z,101557.72
2023-05-13T05:13:33.531Z,101566.19
2023-05-13T05:15:59.956Z,101563.50
2023-05-13T05:18:26.576Z,101572.41
2023-05-13T05:20:53.162Z,101568.16
2023-05-13T05:23:19.622Z,101573.53
2023-05-13T05:25:46.100Z,101571.56
2023-05-13T05:28:12.586Z,101570.13
2023-05-13T05:30:42.070Z,101573.69
2023-05-13T05:33:08.880Z,101575.91
2023-05-13T05:35:38.400Z,101567.84
2023-05-13T05:38:05.354Z,101574.94
2023-05-13T05:40:32.916Z,101576.16
2023-05-13T05:42:59.487Z,101580.81
2023-05-13T05:45:25.996Z,101586.63
2023-05-13T05:47:54.147Z,101582.78
2023-05-13T05:50:21.351Z,101583.63
2023-05-13T05:52:48.088Z,101591.69
2023-05-13T05:55:15.152Z,101587.16
2023-05-13T05:57:41.591Z,101578.31
2023-05-13T06:00:08.779Z,101588.31
2023-05-13T06:02:35.361Z,101587.81
2023-05-13T06:05:01.855Z,101592.81
2023-05-13T06:07:28.447Z,101591.72
2023-05-13T06:09:55.491Z,101595.75
2023-05-13T06:12:23.225Z,101591.84
2023-05-13T06:14:50.327Z,101596.31
2023-05-13T06:17:16.772Z,101600.75
2023-05-13T06:19:43.574Z,101588.59
2023-05-13T06:22:11.266Z,101590.53
2023-05-13T06:24:39.191Z,101586.84
2023-05-13T06:27:05.786Z,101591.50
2023-05-13T06:29:32.460Z,101596.22
2023-05-13T06:31:58.954Z,101591.50
2023-05-13T06:34:25.428Z,101589.66
2023-05-13T06:36:51.886Z,101597.69
2023-05-13T06:39:18.491Z,101578.06
2023-05-13T06:41:45.066Z,101586.06
2023-05-13T06:44:11.534Z,101580.44
2023-05-13T06:46:38.037Z,101586.59
2023-05-13T06:49:04.650Z,101580.66
2023-05-13T06:51:32.951Z,101576.44
2023-05-13T06:53:59.560Z,101573.94
2023-05-13T06:56:26.152Z,101578.41
2023-05-13T06:58:53.164Z,101581.88
2023-05-13T07:01:19.971Z,101567.19
2023-05-13T07:03:46.556Z,101575.28
2023-05-13T07:06:13.043Z,101562.28
2023-05-13T07:08:40.823Z,101558.94
2023-05-13T07:11:07.383Z,101566.72
2023-05-13T07:13:34.957Z,101564.84
2023-05-13T07:16:02.395Z,101563.31
2023-05-13T07:18:29.602Z,101560.53
2023-05-13T07:20:59.019Z,101553.41
2023-05-13T07:23:25.626Z,101556.84
2023-05-13T07:25:52.442Z,101549.69
2023-05-13T07:28:20.733Z,101545.53
2023-05-13T07:30:47.307Z,101547.03
2023-05-13T07:33:13.915Z,101552.72
2023-05-13T07:35:40.422Z,101547.56
2023-05-13T07:38:09.229Z,101546.00
2023-05-13T07:40:35.801Z,101532.75
2023-05-13T07:43:02.300Z,101540.41
2023-05-13T07:45:29.505Z,101538.13
2023-05-13T07:47:56.574Z,101534.50
2023-05-13T07:50:23.243Z,101528.84
2023-05-13T07:52:51.683Z,101532.94
2023-05-13T07:55:18.897Z,101532.16
2023-05-13T07:57:45.712Z,101527.59
2023-05-13T08:00:12.559Z,101528.09
2023-05-13T08:02:39.315Z,101518.78
2023-05-13T08:05:06.695Z,101526.00
2023-05-13T08:07:33.347Z,101530.69
2023-05-13T08:09:59.829Z,101530.91
2023-05-13T08:12:26.281Z,101523.06
2023-05-13T08:14:52.860Z,101521.00
2023-05-13T08:17:19.682Z,101530.25
2023-05-13T08:19:46.373Z,101523.31
2023-05-13T08:22:12.947Z,101518.44
2023-05-13T08:24:43.095Z,101531.28
2023-05-13T08:27:09.589Z,101534.28
2023-05-13T08:29:36.150Z,101530.13
2023-05-13T08:32:03.018Z,101531.78
2023-05-13T08:34:29.658Z,101532.47
2023-05-13T08:36:56.108Z,101533.84
2023-05-13T08:39:22.748Z,101542.50
2023-05-13T08:41:50.101Z,101541.41
2023-05-13T08:44:18.956Z,101544.78
2023-05-13T08:46:53.369Z,101540.31
2023-05-13T08:49:20.663Z,101550.16
2023-05-13T08:51:47.145Z,101540.88
2023-05-13T08:54:16.455Z,101543.75
2023-05-13T08:56:42.915Z,101537.38
2023-05-13T08:59:09.476Z,101539.53
2023-05-13T09:01:36.422Z,101535.84
2023-05-13T09:04:08.603Z,101536.63
2023-05-13T09:06:35.124Z,101537.66
2023-05-13T09:09:03.136Z,101530.66
2023-05-13T09:11:29.643Z,101535.53
2023-05-13T09:14:00.414Z,101536.66
2023-05-13T09:16:29.267Z,101540.38
2023-05-13T09:18:58.931Z,101538.94
2023-05-13T09:21:34.124Z,101539.56
2023-05-13T09:24:18.901Z,101524.31
2023-05-13T09:26:46.307Z,101519.84
2023-05-13T09:29:18.571Z,101517.72
2023-05-13T09:31:46.915Z,101505.31
2023-05-13T09:34:13.414Z,101526.16
2023-05-13T09:36:40.642Z,101510.91
2023-05-13T09:39:07.254Z,101516.75
2023-05-13T09:41:34.383Z,101510.00
2023-05-13T09:44:04.746Z,101514.28
2023-05-13T09:46:35.125Z,101514.75
2023-05-13T09:49:01.754Z,101511.34
2023-05-13T09:51:31.809Z,101509.44
2023-05-13T09:54:06.293Z,101513.81
2023-05-13T09:56:36.924Z,101506.31
2023-05-13T09:59:03.792Z,101508.34
2023-05-13T10:01:30.845Z,101496.84
2023-05-13T10:04:01.281Z,101498.19
2023-05-13T10:06:30.860Z,101485.91
2023-05-13T10:09:01.364Z,101495.31
2023-05-13T10:11:30.105Z,101498.97
2023-05-13T10:14:20.538Z,101495.31
2023-05-13T10:16:47.995Z,101495.06
2023-05-13T10:19:14.900Z,101494.78
2023-05-13T10:21:42.175Z,101498.78
2023-05-13T10:24:09.864Z,101493.88
2023-05-13T10:26:36.583Z,101499.88
2023-05-13T10:29:03.563Z,101496.03
2023-05-13T10:31:30.956Z,101485.44
2023-05-13T10:33:58.622Z,101487.06
2023-05-13T10:36:43.870Z,101487.88
2023-05-13T10:39:49.428Z,101492.66
2023-05-13T10:42:27.722Z,101497.75
2023-05-13T10:44:58.589Z,101485.16
2023-05-13T10:47:25.392Z,101487.28
2023-05-13T10:49:52.919Z,101479.63
2023-05-13T10:52:19.885Z,101489.91
2023-05-13T10:55:01.579Z,101483.97
2023-05-13T10:57:37.823Z,101484.63
2023-05-13T11:00:15.707Z,101481.19
2023-05-13T11:02:42.711Z,101485.03
2023-05-13T11:05:09.977Z,101481.03
2023-05-13T11:07:39.675Z,101489.00
2023-05-13T11:10:25.612Z,101481.66
2023-05-13T11:13:13.186Z,101476.38
2023-05-13T11:15:52.072Z,101474.09
2023-05-13T11:18:20.183Z,101472.91
2023-05-13T11:20:53.064Z,101482.06
2023-05-13T11:23:21.080Z,101471.31
2023-05-13T11:26:09.433Z,101472.91
2023-05-13T11:29:00.125Z,101458.13
2023-05-13T11:31:28.676Z,101464.00
2023-05-13T11:34:11.463Z,101462.13
2023-05-13T11:36:40.459Z,101458.34
2023-05-13T11:39:07.774Z,101464.88
2023-05-13T11:41:34.400Z,101468.41
2023-05-13T11:44:03.274Z,101466.38
2023-05-13T11:46:30.150Z,101475.94
2023-05-13T11:48:56.931Z,101463.03
2023-05-13T11:51:25.443Z,101459.84
2023-05-13T11:53:55.148Z,101458.94
2023-05-13T11:56:26.576Z,101466.94
2023-05-13T11:58:53.402Z,101465.31
2023-05-13T12:01:19.890Z,101467.34
2023-05-13T12:03:46.570Z,101470.28
2023-05-13T12:06:13.601Z,101454.50
2023-05-13T12:08:45.370Z,101455.50
2023-05-13T12:11:15.280Z,101459.03
2023-05-13T12:13:42.049Z,101459.03
2023-05-13T12:16:08.802Z,101452.66
2023-05-13T12:18:37.224Z,101454.44
2023-05-13T12:21:14.599Z,101453.91
2023-05-13T12:23:41.161Z,101455.38
2023-05-13T12:26:08.153Z,101455.81
2023-05-13T12:28:34.688Z,101463.25
2023-05-13T12:31:03.437Z,101455.94
2023-05-13T12:33:31.237Z,101456.47
2023-05-13T12:36:21.634Z,101465.44
2023-05-13T12:39:02.626Z,101461.50
2023-05-13T12:41:31.978Z,101459.09
2023-05-13T12:44:14.507Z,101457.00
2023-05-13T12:46:58.312Z,101455.19
2023-05-13T12:49:27.150Z,101448.78
2023-05-13T12:51:53.604Z,101447.22
2023-05-13T12:54:20.110Z,101444.00
2023-05-13T12:56:46.645Z,101454.31
2023-05-13T12:59:14.385Z,101455.69
2023-05-13T13:01:42.206Z,101449.44
2023-05-13T13:04:08.909Z,101454.34
2023-05-13T13:06:35.770Z,101450.84
2023-05-13T13:09:02.312Z,101444.09
2023-05-13T13:11:29.885Z,101449.47
2023-05-13T13:13:56.419Z,101431.03
2023-05-13T13:16:23.191Z,101439.56
2023-05-13T13:18:53.193Z,101434.97
2023-05-13T13:21:21.400Z,101434.56
2023-05-13T13:23:47.819Z,101438.22
2023-05-13T13:26:14.319Z,101442.56
2023-05-13T13:28:40.789Z,101444.78
2023-05-13T13:31:07.906Z,101444.63
2023-05-13T13:33:34.436Z,101435.13
2023-05-13T13:36:00.942Z,101446.59
2023-05-13T13:38:27.426Z,101442.72
2023-05-13T13:40:53.813Z,101437.94
2023-05-13T13:43:21.560Z,101437.75
2023-05-13T13:45:48.146Z,101440.84
2023-05-13T13:48:14.693Z,101433.75
2023-05-13T14:01:44.286Z,101427.84
2023-05-13T14:04:15.678Z,101425.09
2023-05-13T14:06:42.638Z,101420.75
2023-05-13T14:09:10.416Z,101414.72
2023-05-13T14:11:37.021Z,101415.47
2023-05-13T14:14:03.484Z,101406.91
2023-05-13T14:16:30.573Z,101403.66
2023-05-13T14:18:57.396Z,101410.84
2023-05-13T14:21:24.024Z,101408.31
2023-05-13T14:23:50.664Z,101407.16
2023-05-13T14:26:39.130Z,101400.97
2023-05-13T14:29:06.667Z,101385.41
2023-05-13T14:31:33.269Z,101392.28
2023-05-13T14:33:59.785Z,101398.06
2023-05-13T14:36:26.795Z,101399.66
2023-05-13T14:38:54.072Z,101400.31
2023-05-13T14:41:22.597Z,101403.09
2023-05-13T14:43:49.446Z,101396.06
2023-05-13T14:46:16.045Z,101401.44
2023-05-13T14:48:42.600Z,101396.53
2023-05-13T14:51:11.160Z,101388.72
2023-05-13T14:53:38.433Z,101390.03
2023-05-13T14:56:06.405Z,101391.44
2023-05-13T14:58:32.959Z,101391.56
2023-05-13T15:00:59.463Z,101395.97
2023-05-13T15:03:26.334Z,101388.38
2023-05-13T15:05:54.329Z,101383.59
2023-05-13T15:08:21.000Z,101390.47
2023-05-13T15:10:47.538Z,101391.44
2023-05-13T15:13:13.986Z,101385.72
2023-05-13T15:15:40.448Z,101395.94
2023-05-13T15:18:06.985Z,101406.03
2023-05-13T15:20:33.515Z,101403.59
2023-05-13T15:23:00.001Z,101395.97
2023-05-13T15:25:26.496Z,101396.50
2023-05-13T15:27:54.200Z,101393.38
2023-05-13T15:30:20.882Z,101390.63
2023-05-13T15:32:47.543Z,101386.28
2023-05-13T15:35:15.768Z,101381.13
2023-05-13T15:37:42.660Z,101381.16
2023-05-13T15:40:09.484Z,101385.97
2023-05-13T15:42:36.020Z,101377.47
2023-05-13T15:45:02.597Z,101381.84
2023-05-13T15:47:29.271Z,101383.94
2023-05-13T15:49:55.857Z,101375.44
2023-05-13T15:52:22.292Z,101382.34
2023-05-13T15:54:48.753Z,101383.59
2023-05-13T15:57:15.579Z,101375.53
2023-05-13T15:59:42.177Z,101375.50
2023-05-13T16:02:08.748Z,101389.53
2023-05-13T16:04:35.556Z,101403.31
2023-05-13T16:07:02.119Z,101408.13
2023-05-13T16:09:28.563Z,101414.91
2023-05-13T16:11:55.354Z,101421.69
2023-05-13T16:14:21.835Z,101419.69
2023-05-13T16:16:48.396Z,101420.63
2023-05-13T16:19:14.996Z,101425.75
2023-05-13T16:21:42.277Z,101415.88
2023-05-13T16:24:08.728Z,101419.72
2023-05-13T16:26:35.194Z,101430.16
2023-05-13T16:29:01.921Z,101429.47
2023-05-13T16:31:28.484Z,101425.63
2023-05-13T16:33:55.094Z,101432.13
2023-05-13T16:36:21.707Z,101441.19
2023-05-13T16:38:48.431Z,101443.13
2023-05-13T16:41:15.022Z,101455.38
2023-05-13T16:43:41.415Z,101460.84
2023-05-13T16:46:07.873Z,101467.31
2023-05-13T16:48:34.630Z,101466.34
2023-05-13T16:51:01.062Z,101471.59
2023-05-13T16:53:27.533Z,101475.44
2023-05-13T16:55:54.083Z,101478.94
2023-05-13T16:58:20.612Z,101484.75
2023-05-13T17:00:47.123Z,101471.84
2023-05-13T17:03:13.756Z,101476.63
2023-05-13T17:05:40.570Z,101479.66
2023-05-13T17:08:07.035Z,101476.75
2023-05-13T17:10:33.533Z,101474.81
2023-05-13T17:12:59.960Z,101467.75
2023-05-13T17:15:26.418Z,101467.75
2023-05-13T17:17:52.888Z,101464.69
2023-05-13T17:20:20.566Z,101457.09
2023-05-13T17:22:47.500Z,101460.38
2023-05-13T17:25:14.895Z,101462.81
2023-05-13T17:27:41.454Z,101464.97
2023-05-13T17:30:08.702Z,101467.16
2023-05-13T17:32:35.764Z,101467.50
2023-05-13T17:35:04.075Z,101471.09
2023-05-13T17:37:30.633Z,101466.16
2023-05-13T17:40:00.597Z,101471.88
2023-05-13T17:42:28.899Z,101467.06
2023-05-13T17:44:55.480Z,101471.53
2023-05-13T17:47:22.049Z,101478.16
2023-05-13T17:49:48.482Z,101474.59
2023-05-13T17:52:15.068Z,101471.69
2023-05-13T17:54:41.570Z,101477.63
2023-05-13T17:57:09.918Z,101480.09
2023-05-13T17:59:36.667Z,101487.44
2023-05-13T18:02:03.249Z,101477.59
2023-05-13T18:04:29.769Z,101480.22
2023-05-13T18:06:56.193Z,101479.97
2023-05-13T18:09:22.640Z,101490.50
2023-05-13T18:11:49.065Z,101489.19
2023-05-13T18:14:15.669Z,101484.84
2023-05-13T18:16:42.174Z,101481.72
2023-05-13T18:19:08.747Z,101484.91
2023-05-13T18:21:35.281Z,101481.44
2023-05-13T18:24:01.794Z,101487.38
2023-05-13T18:26:28.203Z,101492.31
2023-05-13T18:28:54.665Z,101490.44
2023-05-13T18:31:21.178Z,101494.88
2023-05-13T18:33:47.736Z,101493.16
2023-05-13T18:36:14.591Z,101486.03
2023-05-13T18:38:41.156Z,101492.41
2023-05-13T18:41:07.687Z,101497.38
2023-05-13T18:43:34.180Z,101490.59
2023-05-13T18:46:00.797Z,101486.91
2023-05-13T18:48:27.358Z,101490.81
2023-05-13T18:50:53.819Z,101491.88
2023-05-13T18:53:20.258Z,101490.25
2023-05-13T18:55:46.686Z,101496.34
2023-05-13T18:58:13.793Z,101503.72
2023-05-13T19:00:40.324Z,101498.31
2023-05-13T19:03:06.873Z,101499.53
2023-05-13T19:05:33.539Z,101501.06
2023-05-13T19:08:00.645Z,101499.53
2023-05-13T19:10:27.194Z,101498.16
2023-05-13T19:12:53.678Z,101493.56
2023-05-13T19:15:21.380Z,101498.97
2023-05-13T19:17:48.129Z,101496.94
2023-05-13T19:20:16.445Z,101498.28
2023-05-13T19:22:42.969Z,101503.53
2023-05-13T19:25:09.713Z,101502.41
2023-05-13T19:27:37.247Z,101499.16
2023-05-13T19:30:04.316Z,101504.72
2023-05-13T19:32:30.857Z,101506.09
2023-05-13T19:34:57.269Z,101506.09
2023-05-13T19:37:24.342Z,101505.41
2023-05-13T19:39:50.809Z,101505.59
2023-05-13T19:42:17.343Z,101511.84
2023-05-13T19:44:44.117Z,101513.03
2023-05-13T19:47:10.568Z,101514.19
2023-05-13T19:49:37.044Z,101509.47
2023-05-13T19:52:03.629Z,101507.97
2023-05-13T19:54:30.074Z,101511.53
2023-05-13T19:56:56.612Z,101503.41
2023-05-13T19:59:23.089Z,101505.94
2023-05-13T20:01:49.592Z,101517.97
2023-05-13T20:04:16.807Z,101513.38
2023-05-13T20:06:43.270Z,101515.75
2023-05-13T20:09:10.500Z,101509.69
2023-05-13T20:11:36.943Z,101512.94
2023-05-13T20:14:04.155Z,101514.63
2023-05-13T20:16:30.728Z,101519.69
2023-05-13T20:18:57.396Z,101514.63
2023-05-13T20:21:23.913Z,101522.34
2023-05-13T20:23:50.335Z,101513.19
2023-05-13T20:26:17.211Z,101510.19
2023-05-13T20:28:45.634Z,101515.41
2023-05-13T20:31:12.257Z,101511.53
2023-05-13T20:33:38.723Z,101513.28
2023-05-13T20:36:06.507Z,101513.72
2023-05-13T20:38:33.054Z,101506.13
2023-05-13T20:40:59.855Z,101514.75
2023-05-13T20:43:26.448Z,101502.41
2023-05-13T20:45:53.056Z,101507.47
2023-05-13T20:48:19.675Z,101515.41
2023-05-13T20:50:46.231Z,101511.69
2023-05-13T20:53:12.731Z,101518.22
2023-05-13T20:55:39.211Z,101514.63
2023-05-13T20:58:05.804Z,101514.47
2023-05-13T21:00:32.280Z,101515.44
2023-05-13T21:02:59.469Z,101515.38
2023-05-13T21:05:26.203Z,101506.28
2023-05-13T21:07:52.678Z,101513.38
2023-05-13T21:10:19.203Z,101506.97
2023-05-13T21:12:47.653Z,101509.00
2023-05-13T21:15:14.694Z,101506.31
2023-05-13T21:17:41.235Z,101506.34
2023-05-13T21:20:08.639Z,101503.19
2023-05-13T21:22:35.114Z,101506.38
2023-05-13T21:25:01.609Z,101500.16
2023-05-13T21:27:28.056Z,101499.81
2023-05-13T21:29:54.539Z,101507.69
2023-05-13T21:32:21.032Z,101503.00
2023-05-13T21:34:47.481Z,101497.28
2023-05-13T21:37:14.395Z,101498.09
2023-05-13T21:39:41.375Z,101502.97
2023-05-13T21:42:08.046Z,101502.59
2023-05-13T21:44:34.953Z,101496.19
2023-05-13T21:47:01.458Z,101496.44
2023-05-13T21:49:27.903Z,101502.25
2023-05-13T21:51:54.394Z,101498.19
2023-05-13T21:54:20.946Z,101506.69
2023-05-13T21:56:47.465Z,101498.75
2023-05-13T21:59:13.939Z,101498.72
2023-05-13T22:01:40.488Z,101501.91
2023-05-13T22:04:07.014Z,101504.09
2023-05-13T22:06:33.569Z,101503.06
2023-05-13T22:09:01.404Z,101500.59
2023-05-13T22:11:27.936Z,101499.97
2023-05-13T22:13:54.331Z,101500.59
2023-05-13T22:16:20.902Z,101492.16
2023-05-13T22:18:48.851Z,101496.28
2023-05-13T22:21:15.560Z,101498.44
2023-05-13T22:23:42.066Z,101498.50
2023-05-13T22:26:08.548Z,101490.69
2023-05-13T22:28:34.996Z,101500.13
2023-05-13T22:31:01.836Z,101493.72
2023-05-13T22:33:28.364Z,101497.50
2023-05-13T22:35:54.847Z,101485.59
2023-05-13T22:38:21.348Z,101487.56
2023-05-13T22:40:47.868Z,101493.53
2023-05-13T22:43:14.335Z,101492.72
2023-05-13T22:45:40.896Z,101492.59
2023-05-13T22:48:08.160Z,101491.56
2023-05-13T22:50:34.814Z,101502.44
2023-05-13T22:53:01.272Z,101492.25
2023-05-13T22:55:27.716Z,101498.72
2023-05-13T22:57:54.162Z,101497.97
2023-05-13T23:00:20.856Z,101484.34
2023-05-13T23:02:47.536Z,101491.94
2023-05-13T23:05:14.004Z,101490.09
2023-05-13T23:07:40.471Z,101490.25
2023-05-13T23:10:07.410Z,101489.94
2023-05-13T23:12:33.845Z,101492.47
2023-05-13T23:15:00.421Z,101488.44
2023-05-13T23:17:26.929Z,101481.38
2023-05-13T23:19:53.460Z,101480.75
2023-05-13T23:22:19.886Z,101486.97
2023-05-13T23:24:46.333Z,101476.19
2023-05-13T23:27:12.848Z,101489.81
2023-05-13T23:29:39.333Z,101481.91
2023-05-13T23:32:06.953Z,101486.25
2023-05-13T23:34:33.824Z,101480.53
2023-05-13T23:37:00.329Z,101479.84
2023-05-13T23:39:26.778Z,101473.78
2023-05-13T23:41:53.221Z,101482.81
2023-05-13T23:44:19.652Z,101478.03
2023-05-13T23:46:46.119Z,101474.88
2023-05-13T23:49:12.521Z,101468.84
2023-05-13T23:51:39.183Z,101465.00
2023-05-13T23:54:05.726Z,101469.56
2023-05-13T23:56:32.249Z,101463.44
2023-05-13T23:58:58.770Z,101470.06
